createdAt,value
2018-09-20T00:00:07.713Z,24.73
2018-09-20T00:01:07.668Z,24.65
2018-09-20T00:02:07.625Z,24.65
2018-09-20T00:03:07.583Z,24.69
2018-09-20T00:04:07.536Z,24.65
2018-09-20T00:05:07.492Z,24.68
2018-09-20T00:06:07.449Z,24.68
2018-09-20T00:07:07.405Z,24.73
2018-09-20T00:08:07.360Z,24.64
2018-09-20T00:09:07.317Z,24.73
2018-09-20T00:10:07.273Z,24.80
2018-09-20T00:11:07.229Z,24.68
2018-09-20T00:12:07.185Z,24.73
2018-09-20T00:13:07.141Z,24.76
2018-09-20T00:14:07.097Z,24.67
2018-09-20T00:15:07.054Z,24.69
2018-09-20T00:16:07.009Z,24.65
2018-09-20T00:17:06.966Z,24.67
2018-09-20T00:18:06.922Z,24.68
2018-09-20T00:19:06.878Z,24.83
2018-09-20T00:20:06.834Z,24.84
2018-09-20T00:21:06.790Z,24.71
2018-09-20T00:22:06.748Z,24.68
2018-09-20T00:23:06.703Z,24.68
2018-09-20T00:24:06.729Z,24.78
2018-09-20T00:25:06.614Z,24.77
2018-09-20T00:26:06.571Z,24.65
2018-09-20T00:27:06.527Z,24.78
2018-09-20T00:28:06.482Z,24.68
2018-09-20T00:29:06.438Z,24.68
2018-09-20T00:30:06.395Z,24.65
2018-09-20T00:31:06.351Z,24.64
2018-09-20T00:32:06.306Z,24.67
2018-09-20T00:33:06.262Z,24.73
2018-09-20T00:34:06.219Z,24.78
2018-09-20T00:35:06.175Z,24.80
2018-09-20T00:36:06.130Z,24.71
2018-09-20T00:37:06.087Z,24.76
2018-09-20T00:38:06.043Z,24.78
2018-09-20T00:39:05.999Z,24.68
2018-09-20T00:40:05.956Z,24.71
2018-09-20T00:41:05.911Z,24.67
2018-09-20T00:42:05.868Z,24.71
2018-09-20T00:43:05.824Z,24.81
2018-09-20T00:44:05.779Z,24.76
2018-09-20T00:45:05.735Z,24.67
2018-09-20T00:46:05.691Z,24.71
2018-09-20T00:47:05.648Z,24.67
2018-09-20T00:48:05.603Z,24.77
2018-09-20T00:49:05.561Z,24.73
2018-09-20T00:50:05.515Z,24.69
2018-09-20T00:51:05.472Z,24.69
2018-09-20T00:52:05.429Z,24.67
2018-09-20T00:53:05.383Z,24.71
2018-09-20T00:54:05.339Z,24.68
2018-09-20T00:55:05.296Z,24.68
2018-09-20T00:56:05.252Z,24.67
2018-09-20T00:57:05.207Z,24.78
2018-09-20T00:58:05.163Z,24.73
2018-09-20T00:59:05.120Z,24.68
2018-09-20T01:00:05.075Z,24.69
2018-09-20T01:01:05.036Z,24.68
2018-09-20T01:02:04.988Z,24.69
2018-09-20T01:03:04.944Z,24.68
2018-09-20T01:04:04.901Z,24.73
2018-09-20T01:05:04.855Z,24.69
2018-09-20T01:06:04.811Z,24.68
2018-09-20T01:07:04.767Z,24.71
2018-09-20T01:08:05.039Z,24.71
2018-09-20T01:09:04.995Z,24.67
2018-09-20T01:10:04.952Z,24.67
2018-09-20T01:11:04.591Z,24.69
2018-09-20T01:12:04.546Z,24.65
2018-09-20T01:13:04.503Z,24.67
2018-09-20T01:14:04.461Z,24.68
2018-09-20T01:15:04.417Z,24.73
2018-09-20T01:16:04.371Z,24.71
2018-09-20T01:17:04.327Z,24.71
2018-09-20T01:18:04.285Z,24.68
2018-09-20T01:19:04.239Z,24.69
2018-09-20T01:20:04.195Z,24.71
2018-09-20T01:21:04.150Z,24.65
2018-09-20T01:22:04.107Z,24.65
2018-09-20T01:23:04.063Z,24.76
2018-09-20T01:24:04.018Z,24.69
2018-09-20T01:25:03.975Z,24.69
2018-09-20T01:26:03.932Z,24.69
2018-09-20T01:27:03.887Z,24.67
2018-09-20T01:28:03.842Z,24.67
2018-09-20T01:29:03.798Z,24.67
2018-09-20T01:30:03.755Z,24.71
2018-09-20T01:31:03.710Z,24.68
2018-09-20T01:32:03.666Z,24.69
2018-09-20T01:33:03.625Z,24.67
2018-09-20T01:34:03.578Z,24.69
2018-09-20T01:35:03.534Z,24.68
2018-09-20T01:36:03.490Z,24.68
2018-09-20T01:37:03.446Z,24.68
2018-09-20T01:38:03.403Z,24.67
2018-09-20T01:39:03.359Z,24.69
2018-09-20T01:40:03.318Z,24.67
2018-09-20T01:41:03.269Z,24.67
2018-09-20T01:42:03.225Z,24.65
2018-09-20T01:43:03.181Z,24.67
2018-09-20T01:44:03.137Z,24.64
2018-09-20T01:45:03.092Z,24.62
2018-09-20T01:46:03.049Z,24.60
2018-09-20T01:47:03.005Z,24.67
2018-09-20T01:48:02.960Z,24.64
2018-09-20T01:49:02.916Z,24.68
2018-09-20T01:50:02.872Z,24.69
2018-09-20T01:51:02.829Z,24.61
2018-09-20T01:52:02.785Z,24.64
2018-09-20T01:53:02.742Z,24.65
2018-09-20T01:54:02.696Z,24.57
2018-09-20T01:55:02.652Z,24.64
2018-09-20T01:56:02.607Z,24.61
2018-09-20T01:57:02.563Z,24.67
2018-09-20T01:58:02.520Z,24.62
2018-09-20T01:59:02.478Z,24.57
2018-09-20T02:00:02.433Z,24.67
2018-09-20T02:01:02.389Z,24.64
2018-09-20T02:02:02.342Z,24.62
2018-09-20T02:03:02.301Z,24.60
2018-09-20T02:04:02.254Z,24.65
2018-09-20T02:05:02.221Z,24.64
2018-09-20T02:06:02.170Z,24.57
2018-09-20T02:07:02.123Z,24.58
2018-09-20T02:08:02.077Z,24.58
2018-09-20T02:09:02.034Z,24.53
2018-09-20T02:10:01.990Z,24.64
2018-09-20T02:11:01.949Z,24.67
2018-09-20T02:12:01.951Z,24.62
2018-09-20T02:13:01.857Z,24.62
2018-09-20T02:14:01.813Z,24.58
2018-09-20T02:15:01.773Z,24.58
2018-09-20T02:16:01.727Z,24.57
2018-09-20T02:17:01.681Z,24.49
2018-09-20T02:18:01.689Z,24.62
2018-09-20T02:19:01.593Z,24.58
2018-09-20T02:20:01.548Z,24.60
2018-09-20T02:21:01.505Z,24.55
2018-09-20T02:22:01.460Z,24.55
2018-09-20T02:23:01.416Z,24.58
2018-09-20T02:24:01.372Z,24.61
2018-09-20T02:25:01.328Z,24.53
2018-09-20T02:26:01.284Z,24.57
2018-09-20T02:27:01.240Z,24.57
2018-09-20T02:28:01.197Z,24.62
2018-09-20T02:29:01.151Z,24.60
2018-09-20T02:30:01.107Z,24.60
2018-09-20T02:31:01.064Z,24.60
2018-09-20T02:32:01.018Z,24.58
2018-09-20T02:33:00.974Z,24.61
2018-09-20T02:34:00.933Z,24.57
2018-09-20T02:35:00.888Z,24.58
2018-09-20T02:36:00.843Z,24.53
2018-09-20T02:37:00.799Z,24.57
2018-09-20T02:38:00.754Z,24.61
2018-09-20T02:39:00.711Z,24.61
2018-09-20T02:40:00.665Z,24.55
2018-09-20T02:41:00.621Z,24.53
2018-09-20T02:42:00.577Z,24.61
2018-09-20T02:43:00.541Z,24.53
2018-09-20T02:44:00.489Z,24.60
2018-09-20T02:45:00.445Z,24.58
2018-09-20T02:46:00.400Z,24.60
2018-09-20T02:47:00.359Z,24.57
2018-09-20T02:48:00.316Z,24.61
2018-09-20T02:49:00.277Z,24.55
2018-09-20T02:50:00.223Z,24.53
2018-09-20T02:51:00.180Z,24.53
2018-09-20T02:52:00.135Z,24.55
2018-09-20T02:53:00.091Z,24.61
2018-09-20T02:54:00.047Z,24.55
2018-09-20T02:55:00.002Z,24.58
2018-09-20T02:55:59.966Z,24.60
2018-09-20T02:56:59.914Z,24.55
2018-09-20T02:57:59.870Z,24.55
2018-09-20T02:58:59.974Z,24.60
2018-09-20T02:59:59.793Z,24.58
2018-09-20T03:00:59.737Z,24.61
2018-09-20T03:01:59.694Z,24.55
2018-09-20T03:02:59.649Z,24.60
2018-09-20T03:03:59.605Z,24.55
2018-09-20T03:04:59.561Z,24.50
2018-09-20T03:05:59.516Z,24.52
2018-09-20T03:06:59.474Z,24.53
2018-09-20T03:07:59.427Z,24.49
2018-09-20T03:08:59.387Z,24.49
2018-09-20T03:09:59.341Z,24.55
2018-09-20T03:10:59.296Z,24.52
2018-09-20T03:11:59.250Z,24.53
2018-09-20T03:12:59.207Z,24.47
2018-09-20T03:13:59.262Z,24.47
2018-09-20T03:14:59.119Z,24.53
2018-09-20T03:15:59.074Z,24.52
2018-09-20T03:16:59.030Z,24.49
2018-09-20T03:17:58.986Z,24.52
2018-09-20T03:18:58.942Z,24.47
2018-09-20T03:19:58.899Z,24.49
2018-09-20T03:20:58.856Z,24.49
2018-09-20T03:21:58.813Z,24.46
2018-09-20T03:22:58.765Z,24.50
2018-09-20T03:23:58.720Z,24.49
2018-09-20T03:24:58.675Z,24.46
2018-09-20T03:25:58.632Z,24.52
2018-09-20T03:26:58.589Z,24.50
2018-09-20T03:27:58.544Z,24.46
2018-09-20T03:28:58.502Z,24.52
2018-09-20T03:29:58.455Z,24.55
2018-09-20T03:30:58.411Z,24.47
2018-09-20T03:31:58.366Z,24.49
2018-09-20T03:32:58.323Z,24.58
2018-09-20T03:33:58.278Z,24.49
2018-09-20T03:34:58.240Z,24.43
2018-09-20T03:35:58.189Z,24.52
2018-09-20T03:36:58.145Z,24.47
2018-09-20T03:37:58.105Z,24.49
2018-09-20T03:38:58.057Z,24.52
2018-09-20T03:39:58.012Z,24.43
2018-09-20T03:40:57.968Z,24.49
2018-09-20T03:41:57.924Z,24.49
2018-09-20T03:42:57.880Z,24.47
2018-09-20T03:43:57.842Z,24.46
2018-09-20T03:44:57.794Z,24.43
2018-09-20T03:45:57.748Z,24.46
2018-09-20T03:46:57.703Z,24.50
2018-09-20T03:47:57.658Z,24.47
2018-09-20T03:48:57.615Z,24.45
2018-09-20T03:49:57.572Z,24.42
2018-09-20T03:50:57.526Z,24.45
2018-09-20T03:51:57.484Z,24.46
2018-09-20T03:52:57.437Z,24.39
2018-09-20T03:53:57.393Z,24.40
2018-09-20T03:54:57.349Z,24.46
2018-09-20T03:55:57.303Z,24.43
2018-09-20T03:56:57.260Z,24.43
2018-09-20T03:57:57.219Z,24.42
2018-09-20T03:58:57.171Z,24.49
2018-09-20T03:59:57.127Z,24.47
2018-09-20T04:00:57.083Z,24.45
2018-09-20T04:01:57.039Z,24.47
2018-09-20T04:02:56.994Z,24.46
2018-09-20T04:03:56.950Z,24.45
2018-09-20T04:04:56.905Z,24.47
2018-09-20T04:05:56.861Z,24.45
2018-09-20T04:06:56.817Z,24.43
2018-09-20T04:07:56.772Z,24.42
2018-09-20T04:08:56.728Z,24.49
2018-09-20T04:09:56.684Z,24.43
2018-09-20T04:10:56.641Z,24.50
2018-09-20T04:11:56.597Z,24.43
2018-09-20T04:12:56.552Z,24.49
2018-09-20T04:13:56.509Z,24.45
2018-09-20T04:14:56.463Z,24.43
2018-09-20T04:15:56.425Z,24.43
2018-09-20T04:16:56.376Z,24.47
2018-09-20T04:17:56.330Z,24.42
2018-09-20T04:18:56.285Z,24.42
2018-09-20T04:19:56.241Z,24.35
2018-09-20T04:20:56.196Z,24.47
2018-09-20T04:21:56.153Z,24.47
2018-09-20T04:22:56.111Z,24.43
2018-09-20T04:23:56.063Z,24.45
2018-09-20T04:24:56.020Z,24.46
2018-09-20T04:25:55.974Z,24.46
2018-09-20T04:26:55.931Z,24.46
2018-09-20T04:27:55.885Z,24.45
2018-09-20T04:28:55.845Z,24.45
2018-09-20T04:29:55.798Z,24.42
2018-09-20T04:30:55.753Z,24.43
2018-09-20T04:31:55.852Z,24.43
2018-09-20T04:32:55.665Z,24.45
2018-09-20T04:33:55.621Z,24.50
2018-09-20T04:34:55.576Z,24.46
2018-09-20T04:35:55.532Z,24.47
2018-09-20T04:36:55.499Z,24.45
2018-09-20T04:37:55.443Z,24.42
2018-09-20T04:38:55.399Z,24.45
2018-09-20T04:39:55.358Z,24.49
2018-09-20T04:40:55.310Z,24.43
2018-09-20T04:41:55.266Z,24.50
2018-09-20T04:42:55.224Z,24.45
2018-09-20T04:43:55.177Z,24.42
2018-09-20T04:44:55.132Z,24.49
2018-09-20T04:45:55.089Z,24.42
2018-09-20T04:46:55.044Z,24.40
2018-09-20T04:47:55.002Z,24.45
2018-09-20T04:48:54.955Z,24.46
2018-09-20T04:49:54.911Z,24.49
2018-09-20T04:50:54.867Z,24.47
2018-09-20T04:51:54.821Z,24.37
2018-09-20T04:52:54.777Z,24.42
2018-09-20T04:53:54.734Z,24.46
2018-09-20T04:54:54.690Z,24.46
2018-09-20T04:55:54.644Z,24.37
2018-09-20T04:56:54.602Z,24.40
2018-09-20T04:57:54.556Z,24.43
2018-09-20T04:58:54.512Z,24.47
2018-09-20T04:59:54.592Z,24.43
2018-09-20T05:00:54.423Z,24.49
2018-09-20T05:01:54.379Z,24.45
2018-09-20T05:02:54.335Z,24.49
2018-09-20T05:03:54.290Z,24.42
2018-09-20T05:04:54.246Z,24.46
2018-09-20T05:05:54.208Z,24.45
2018-09-20T05:06:54.157Z,24.42
2018-09-20T05:07:54.112Z,24.47
2018-09-20T05:08:54.068Z,24.40
2018-09-20T05:09:54.024Z,24.40
2018-09-20T05:10:53.980Z,24.47
2018-09-20T05:11:53.935Z,24.37
2018-09-20T05:12:53.892Z,24.45
2018-09-20T05:13:53.846Z,24.40
2018-09-20T05:14:53.802Z,24.35
2018-09-20T05:15:53.809Z,24.37
2018-09-20T05:16:53.713Z,24.47
2018-09-20T05:17:53.669Z,24.43
2018-09-20T05:18:53.624Z,24.42
2018-09-20T05:19:53.580Z,24.45
2018-09-20T05:20:53.536Z,24.43
2018-09-20T05:21:53.491Z,24.46
2018-09-20T05:22:53.449Z,24.42
2018-09-20T05:23:53.402Z,24.50
2018-09-20T05:24:53.358Z,24.47
2018-09-20T05:25:53.316Z,24.45
2018-09-20T05:26:53.270Z,24.43
2018-09-20T05:27:53.224Z,24.46
2018-09-20T05:28:53.180Z,24.45
2018-09-20T05:29:53.136Z,24.45
2018-09-20T05:30:53.092Z,24.43
2018-09-20T05:31:53.047Z,24.45
2018-09-20T05:32:53.003Z,24.42
2018-09-20T05:33:52.959Z,24.46
2018-09-20T05:34:52.915Z,24.45
2018-09-20T05:35:52.870Z,24.45
2018-09-20T05:36:52.825Z,24.43
2018-09-20T05:37:52.781Z,24.43
2018-09-20T05:38:52.738Z,24.42
2018-09-20T05:39:52.692Z,24.42
2018-09-20T05:40:52.647Z,24.43
2018-09-20T05:41:52.604Z,24.42
2018-09-20T05:42:52.559Z,24.46
2018-09-20T05:43:52.514Z,24.46
2018-09-20T05:44:52.470Z,24.45
2018-09-20T05:45:52.425Z,24.43
2018-09-20T05:46:52.384Z,24.43
2018-09-20T05:47:52.336Z,24.45
2018-09-20T05:48:52.293Z,24.39
2018-09-20T05:49:52.248Z,24.47
2018-09-20T05:50:52.246Z,24.43
2018-09-20T05:51:52.167Z,24.50
2018-09-20T05:52:52.115Z,24.46
2018-09-20T05:53:52.071Z,24.47
2018-09-20T05:54:52.027Z,24.52
2018-09-20T05:55:51.982Z,24.45
2018-09-20T05:56:51.940Z,24.45
2018-09-20T05:57:51.894Z,24.46
2018-09-20T05:58:51.849Z,24.50
2018-09-20T05:59:51.804Z,24.53
2018-09-20T06:00:51.761Z,24.50
2018-09-20T06:01:51.759Z,24.50
2018-09-20T06:02:51.673Z,24.50
2018-09-20T06:03:51.627Z,24.40
2018-09-20T06:04:51.583Z,24.47
2018-09-20T06:05:51.543Z,24.49
2018-09-20T06:06:51.495Z,24.49
2018-09-20T06:07:51.452Z,24.49
2018-09-20T06:08:51.405Z,24.53
2018-09-20T06:09:51.362Z,24.50
2018-09-20T06:10:51.318Z,24.50
2018-09-20T06:11:51.273Z,24.52
2018-09-20T06:12:51.230Z,24.50
2018-09-20T06:13:51.185Z,24.52
2018-09-20T06:14:51.141Z,24.55
2018-09-20T06:15:51.095Z,24.55
2018-09-20T06:16:51.052Z,24.55
2018-09-20T06:17:51.008Z,24.61
2018-09-20T06:18:50.963Z,24.62
2018-09-20T06:19:50.918Z,24.58
2018-09-20T06:20:50.874Z,24.61
2018-09-20T06:21:50.913Z,24.60
2018-09-20T06:22:50.789Z,24.65
2018-09-20T06:23:50.740Z,24.53
2018-09-20T06:24:50.697Z,24.46
2018-09-20T06:25:50.654Z,24.32
2018-09-20T06:26:50.608Z,24.34
2018-09-20T06:27:50.564Z,24.31
2018-09-20T06:28:50.521Z,24.32
2018-09-20T06:29:50.479Z,24.27
2018-09-20T06:30:50.432Z,24.31
2018-09-20T06:31:50.388Z,24.30
2018-09-20T06:32:50.342Z,24.09
2018-09-20T06:33:50.299Z,24.22
2018-09-20T06:34:50.277Z,24.13
2018-09-20T06:35:50.210Z,24.10
2018-09-20T06:36:50.216Z,24.12
2018-09-20T06:37:50.124Z,24.10
2018-09-20T06:38:50.081Z,23.93
2018-09-20T06:39:50.033Z,23.97
2018-09-20T06:40:50.038Z,23.98
2018-09-20T06:41:49.945Z,24.02
2018-09-20T06:42:49.901Z,24.03
2018-09-20T06:43:49.905Z,23.97
2018-09-20T06:44:49.812Z,23.98
2018-09-20T06:45:49.768Z,23.98
2018-09-20T06:46:49.724Z,24.06
2018-09-20T06:47:49.679Z,24.00
2018-09-20T06:48:49.634Z,24.00
2018-09-20T06:49:49.590Z,24.02
2018-09-20T06:50:49.545Z,24.05
2018-09-20T06:51:49.500Z,23.97
2018-09-20T06:52:49.457Z,24.05
2018-09-20T06:53:49.412Z,24.05
2018-09-20T06:54:49.368Z,24.03
2018-09-20T06:55:49.322Z,24.05
2018-09-20T06:56:49.280Z,24.09
2018-09-20T06:57:49.236Z,24.13
2018-09-20T06:58:49.192Z,24.12
2018-09-20T06:59:49.146Z,24.20
2018-09-20T07:00:49.103Z,24.16
2018-09-20T07:01:49.059Z,24.13
2018-09-20T07:02:49.018Z,24.13
2018-09-20T07:03:48.970Z,24.20
2018-09-20T07:04:48.926Z,24.08
2018-09-20T07:05:48.884Z,24.27
2018-09-20T07:06:48.838Z,24.16
2018-09-20T07:07:48.794Z,24.22
2018-09-20T07:08:48.750Z,24.37
2018-09-20T07:09:48.706Z,24.45
2018-09-20T07:10:48.663Z,24.49
2018-09-20T07:11:48.618Z,24.64
2018-09-20T07:12:48.575Z,24.78
2018-09-20T07:13:48.575Z,24.90
2018-09-20T07:14:48.487Z,25.08
2018-09-20T07:15:48.441Z,25.20
2018-09-20T07:16:48.399Z,25.42
2018-09-20T07:17:48.355Z,25.43
2018-09-20T07:18:48.312Z,25.52
2018-09-20T07:19:48.268Z,25.64
2018-09-20T07:20:48.225Z,25.60
2018-09-20T07:21:48.182Z,25.57
2018-09-20T07:22:48.139Z,25.57
2018-09-20T07:23:48.095Z,25.62
2018-09-20T07:24:48.368Z,25.80
2018-09-20T07:25:48.082Z,25.76
2018-09-20T07:26:47.967Z,25.75
2018-09-20T07:27:47.923Z,25.87
2018-09-20T07:28:47.880Z,25.77
2018-09-20T07:29:47.838Z,25.88
2018-09-20T07:30:47.795Z,25.75
2018-09-20T07:31:47.752Z,25.82
2018-09-20T07:32:47.716Z,25.87
2018-09-20T07:33:47.667Z,25.85
2018-09-20T07:34:47.631Z,25.88
2018-09-20T07:35:47.580Z,25.99
2018-09-20T07:36:47.540Z,25.83
2018-09-20T07:37:47.496Z,25.94
2018-09-20T07:38:47.455Z,25.79
2018-09-20T07:39:47.411Z,25.80
2018-09-20T07:40:47.369Z,25.85
2018-09-20T07:41:47.328Z,25.87
2018-09-20T07:42:47.286Z,25.94
2018-09-20T07:43:47.242Z,25.99
2018-09-20T07:44:47.200Z,26.10
2018-09-20T07:45:47.158Z,26.13
2018-09-20T07:46:47.116Z,26.13
2018-09-20T07:47:47.074Z,26.25
2018-09-20T07:48:47.032Z,26.37
2018-09-20T07:49:46.990Z,26.43
2018-09-20T07:50:46.948Z,26.30
2018-09-20T07:51:47.006Z,26.43
2018-09-20T07:52:46.866Z,26.26
2018-09-20T07:53:46.930Z,26.15
2018-09-20T07:54:46.782Z,26.17
2018-09-20T07:55:46.742Z,26.17
2018-09-20T07:56:46.788Z,25.97
2018-09-20T07:57:46.657Z,25.99
2018-09-20T07:58:46.615Z,25.95
2018-09-20T07:59:46.588Z,25.99
2018-09-20T08:00:46.533Z,25.97
2018-09-20T08:01:46.560Z,25.97
2018-09-20T08:02:46.451Z,25.88
2018-09-20T08:03:46.414Z,25.83
2018-09-20T08:04:46.372Z,25.91
2018-09-20T08:05:46.328Z,25.87
2018-09-20T08:06:46.287Z,26.01
2018-09-20T08:07:46.246Z,25.97
2018-09-20T08:08:46.205Z,25.91
2018-09-20T08:09:46.164Z,25.87
2018-09-20T08:10:46.124Z,25.85
2018-09-20T08:11:46.082Z,25.85
2018-09-20T08:12:46.098Z,25.87
2018-09-20T08:13:46.000Z,25.97
2018-09-20T08:14:45.961Z,25.83
2018-09-20T08:15:45.919Z,25.83
2018-09-20T08:16:45.879Z,25.91
2018-09-20T08:17:45.838Z,25.87
2018-09-20T08:18:45.802Z,25.92
2018-09-20T08:19:45.758Z,25.94
2018-09-20T08:20:45.719Z,26.01
2018-09-20T08:21:45.678Z,25.94
2018-09-20T08:22:45.636Z,25.87
2018-09-20T08:23:45.598Z,25.87
2018-09-20T08:24:45.558Z,25.97
2018-09-20T08:25:45.519Z,25.87
2018-09-20T08:26:45.478Z,25.97
2018-09-20T08:27:45.478Z,25.90
2018-09-20T08:28:45.403Z,25.94
2018-09-20T08:29:45.359Z,25.88
2018-09-20T08:30:45.318Z,25.98
2018-09-20T08:31:45.278Z,25.99
2018-09-20T08:32:45.238Z,26.02
2018-09-20T08:33:45.199Z,25.99
2018-09-20T08:34:45.160Z,25.99
2018-09-20T08:35:45.118Z,26.01
2018-09-20T08:36:45.081Z,25.97
2018-09-20T08:37:45.125Z,25.98
2018-09-20T08:38:45.002Z,26.09
2018-09-20T08:39:44.970Z,26.07
2018-09-20T08:40:44.922Z,26.07
2018-09-20T08:41:44.884Z,26.07
2018-09-20T08:42:44.846Z,26.12
2018-09-20T08:43:44.808Z,26.01
2018-09-20T08:44:44.767Z,26.12
2018-09-20T08:45:44.729Z,25.95
2018-09-20T08:46:44.691Z,26.06
2018-09-20T08:47:44.651Z,26.05
2018-09-20T08:48:44.616Z,25.99
2018-09-20T08:49:44.574Z,26.01
2018-09-20T08:50:44.535Z,25.98
2018-09-20T08:51:44.813Z,25.98
2018-09-20T08:53:44.741Z,25.95
2018-09-20T08:54:44.380Z,25.91
2018-09-20T08:55:44.340Z,25.85
2018-09-20T08:56:44.346Z,25.91
2018-09-20T08:57:44.262Z,25.91
2018-09-20T08:58:44.225Z,25.85
2018-09-20T08:59:44.181Z,25.85
2018-09-20T09:00:44.142Z,25.83
2018-09-20T09:01:44.103Z,25.91
2018-09-20T09:02:44.062Z,25.83
2018-09-20T09:03:44.026Z,25.90
2018-09-20T09:04:43.980Z,25.83
2018-09-20T09:05:43.939Z,25.90
2018-09-20T09:06:43.903Z,25.85
2018-09-20T09:07:43.859Z,25.87
2018-09-20T09:08:43.816Z,25.87
2018-09-20T09:09:43.775Z,25.90
2018-09-20T09:10:43.737Z,25.85
2018-09-20T09:11:43.691Z,25.82
2018-09-20T09:12:43.653Z,25.83
2018-09-20T09:13:43.611Z,25.87
2018-09-20T09:14:43.569Z,25.85
2018-09-20T09:15:43.529Z,25.82
2018-09-20T09:16:43.486Z,25.91
2018-09-20T09:17:43.496Z,25.87
2018-09-20T09:18:43.405Z,25.88
2018-09-20T09:19:43.379Z,25.83
2018-09-20T09:20:43.319Z,25.85
2018-09-20T09:21:43.276Z,25.88
2018-09-20T09:22:43.235Z,25.85
2018-09-20T09:23:43.193Z,25.85
2018-09-20T09:24:43.194Z,25.85
2018-09-20T09:25:43.111Z,25.85
2018-09-20T09:26:43.067Z,25.88
2018-09-20T09:27:43.024Z,25.87
2018-09-20T09:28:43.077Z,25.82
2018-09-20T09:29:42.940Z,25.87
2018-09-20T09:30:42.897Z,25.87
2018-09-20T09:31:42.854Z,25.82
2018-09-20T09:32:42.813Z,25.90
2018-09-20T09:33:42.771Z,25.90
2018-09-20T09:34:42.731Z,25.85
2018-09-20T09:35:42.734Z,25.87
2018-09-20T09:36:42.644Z,25.85
2018-09-20T09:37:42.602Z,25.87
2018-09-20T09:38:42.559Z,25.83
2018-09-20T09:39:42.515Z,25.80
2018-09-20T09:40:42.473Z,25.83
2018-09-20T09:41:42.431Z,25.82
2018-09-20T09:42:42.389Z,25.80
2018-09-20T09:43:42.346Z,25.80
2018-09-20T09:44:42.303Z,25.79
2018-09-20T09:45:42.262Z,25.76
2018-09-20T09:46:42.218Z,25.70
2018-09-20T09:47:42.175Z,25.76
2018-09-20T09:48:42.133Z,25.76
2018-09-20T09:49:42.090Z,25.67
2018-09-20T09:50:42.051Z,25.64
2018-09-20T09:51:42.012Z,25.70
2018-09-20T09:52:41.962Z,25.64
2018-09-20T09:53:41.920Z,25.62
2018-09-20T09:54:41.928Z,25.65
2018-09-20T09:55:41.835Z,25.62
2018-09-20T09:56:41.792Z,25.58
2018-09-20T09:57:41.749Z,25.65
2018-09-20T09:58:41.707Z,25.67
2018-09-20T09:59:41.705Z,25.64
2018-09-20T10:00:41.621Z,25.61
2018-09-20T10:01:41.579Z,25.61
2018-09-20T10:02:41.610Z,25.69
2018-09-20T10:03:41.492Z,25.65
2018-09-20T10:04:41.450Z,25.69
2018-09-20T10:05:41.406Z,25.60
2018-09-20T10:06:41.364Z,25.64
2018-09-20T10:07:41.321Z,25.64
2018-09-20T10:08:41.278Z,25.64
2018-09-20T10:09:41.236Z,25.62
2018-09-20T10:10:41.193Z,25.62
2018-09-20T10:11:41.149Z,25.60
2018-09-20T10:12:41.107Z,25.61
2018-09-20T10:13:41.085Z,25.62
2018-09-20T10:14:41.022Z,25.64
2018-09-20T10:15:40.978Z,25.61
2018-09-20T10:16:40.936Z,25.64
2018-09-20T10:17:40.893Z,25.58
2018-09-20T10:18:40.850Z,25.62
2018-09-20T10:19:40.807Z,25.65
2018-09-20T10:20:40.764Z,25.60
2018-09-20T10:21:41.039Z,25.61
2018-09-20T10:22:40.677Z,25.64
2018-09-20T10:23:40.635Z,25.57
2018-09-20T10:24:40.593Z,25.62
2018-09-20T10:25:40.550Z,25.61
2018-09-20T10:26:40.507Z,25.58
2018-09-20T10:27:40.463Z,25.61
2018-09-20T10:28:40.420Z,25.58
2018-09-20T10:29:40.380Z,25.61
2018-09-20T10:30:40.335Z,25.62
2018-09-20T10:31:40.294Z,25.62
2018-09-20T10:32:40.249Z,25.61
2018-09-20T10:33:40.207Z,25.58
2018-09-20T10:34:40.162Z,25.61
2018-09-20T10:35:40.120Z,25.57
2018-09-20T10:36:40.077Z,25.62
2018-09-20T10:37:40.034Z,25.60
2018-09-20T10:38:39.994Z,25.61
2018-09-20T10:39:39.948Z,25.61
2018-09-20T10:40:39.906Z,25.58
2018-09-20T10:41:39.861Z,25.60
2018-09-20T10:42:39.820Z,25.57
2018-09-20T10:43:39.775Z,25.58
2018-09-20T10:44:39.733Z,25.60
2018-09-20T10:45:39.690Z,25.61
2018-09-20T10:46:39.655Z,25.52
2018-09-20T10:47:39.604Z,25.60
2018-09-20T10:48:39.563Z,25.54
2018-09-20T10:49:39.522Z,25.55
2018-09-20T10:50:39.476Z,25.57
2018-09-20T10:51:39.431Z,25.46
2018-09-20T10:52:39.387Z,25.58
2018-09-20T10:53:39.346Z,25.58
2018-09-20T10:54:39.357Z,25.55
2018-09-20T10:55:39.259Z,25.51
2018-09-20T10:56:39.215Z,25.51
2018-09-20T10:57:39.173Z,25.52
2018-09-20T10:58:39.130Z,25.54
2018-09-20T10:59:39.087Z,25.57
2018-09-20T11:00:39.044Z,25.60
2018-09-20T11:01:39.001Z,25.60
2018-09-20T11:02:38.958Z,25.55
2018-09-20T11:03:38.918Z,25.52
2018-09-20T11:04:38.872Z,25.52
2018-09-20T11:05:38.835Z,25.52
2018-09-20T11:06:38.784Z,25.51
2018-09-20T11:07:38.742Z,25.50
2018-09-20T11:08:38.798Z,25.54
2018-09-20T11:09:38.655Z,25.54
2018-09-20T11:10:38.673Z,25.52
2018-09-20T11:11:38.570Z,25.52
2018-09-20T11:12:38.526Z,25.52
2018-09-20T11:13:38.483Z,25.58
2018-09-20T11:14:38.440Z,25.51
2018-09-20T11:15:38.395Z,25.50
2018-09-20T11:16:38.353Z,25.50
2018-09-20T11:17:38.310Z,25.50
2018-09-20T11:18:38.267Z,25.50
2018-09-20T11:19:38.227Z,25.55
2018-09-20T11:20:38.180Z,25.47
2018-09-20T11:21:38.137Z,25.52
2018-09-20T11:22:38.097Z,25.55
2018-09-20T11:23:38.051Z,25.51
2018-09-20T11:24:38.011Z,25.52
2018-09-20T11:25:37.964Z,25.47
2018-09-20T11:26:37.923Z,25.51
2018-09-20T11:27:37.880Z,25.46
2018-09-20T11:28:37.834Z,25.51
2018-09-20T11:29:37.790Z,25.51
2018-09-20T11:30:37.749Z,25.52
2018-09-20T11:31:37.704Z,25.50
2018-09-20T11:32:37.662Z,25.60
2018-09-20T11:33:37.617Z,25.57
2018-09-20T11:34:37.574Z,25.47
2018-09-20T11:35:37.531Z,25.60
2018-09-20T11:36:37.490Z,25.51
2018-09-20T11:37:37.545Z,25.46
2018-09-20T11:38:37.402Z,25.50
2018-09-20T11:39:37.359Z,25.54
2018-09-20T11:40:38.317Z,25.38
2018-09-20T11:41:37.271Z,25.50
2018-09-20T11:42:37.228Z,25.39
2018-09-20T11:43:37.184Z,25.51
2018-09-20T11:44:37.142Z,25.50
2018-09-20T11:45:37.098Z,25.52
2018-09-20T11:46:37.099Z,25.52
2018-09-20T11:47:37.011Z,25.50
2018-09-20T11:48:36.969Z,25.50
2018-09-20T11:49:36.925Z,25.45
2018-09-20T11:50:36.882Z,25.52
2018-09-20T11:51:36.838Z,25.47
2018-09-20T11:52:36.795Z,25.50
2018-09-20T11:53:36.756Z,25.51
2018-09-20T11:54:36.709Z,25.57
2018-09-20T11:55:36.665Z,25.51
2018-09-20T11:56:36.622Z,25.52
2018-09-20T11:57:36.580Z,25.51
2018-09-20T11:58:36.537Z,25.47
2018-09-20T11:59:36.492Z,25.55
2018-09-20T12:00:36.449Z,25.54
2018-09-20T12:01:36.416Z,25.52
2018-09-20T12:02:36.362Z,25.51
2018-09-20T12:03:36.319Z,25.54
2018-09-20T12:04:36.276Z,25.55
2018-09-20T12:05:36.234Z,25.52
2018-09-20T12:06:36.189Z,25.65
2018-09-20T12:07:36.145Z,25.52
2018-09-20T12:08:36.103Z,25.52
2018-09-20T12:09:36.060Z,25.50
2018-09-20T12:10:36.016Z,25.52
2018-09-20T12:11:35.973Z,25.50
2018-09-20T12:12:35.931Z,25.50
2018-09-20T12:13:35.886Z,25.57
2018-09-20T12:14:35.903Z,25.50
2018-09-20T12:15:35.812Z,25.52
2018-09-20T12:16:35.756Z,25.57
2018-09-20T12:17:35.713Z,25.47
2018-09-20T12:18:35.670Z,25.43
2018-09-20T12:19:35.626Z,25.51
2018-09-20T12:20:35.582Z,25.51
2018-09-20T12:21:35.540Z,25.46
2018-09-20T12:22:35.497Z,25.54
2018-09-20T12:23:35.453Z,25.50
2018-09-20T12:24:35.412Z,25.46
2018-09-20T12:25:35.373Z,25.52
2018-09-20T12:26:35.326Z,25.54
2018-09-20T12:27:35.281Z,25.47
2018-09-20T12:28:35.236Z,25.52
2018-09-20T12:29:35.193Z,25.50
2018-09-20T12:30:35.151Z,25.54
2018-09-20T12:31:35.171Z,25.50
2018-09-20T12:32:35.063Z,25.50
2018-09-20T12:33:35.021Z,25.50
2018-09-20T12:34:34.980Z,25.54
2018-09-20T12:35:35.034Z,25.57
2018-09-20T12:36:34.889Z,25.58
2018-09-20T12:37:34.849Z,25.58
2018-09-20T12:38:34.859Z,25.60
2018-09-20T12:39:34.759Z,25.61
2018-09-20T12:40:34.716Z,25.62
2018-09-20T12:41:34.673Z,25.60
2018-09-20T12:42:34.630Z,25.62
2018-09-20T12:43:34.586Z,25.57
2018-09-20T12:44:34.544Z,25.60
2018-09-20T12:45:34.500Z,25.61
2018-09-20T12:46:34.457Z,25.57
2018-09-20T12:47:34.413Z,25.55
2018-09-20T12:48:34.369Z,25.57
2018-09-20T12:49:34.326Z,25.57
2018-09-20T12:50:34.287Z,25.57
2018-09-20T12:51:34.239Z,25.60
2018-09-20T12:52:34.196Z,25.60